Time;durP1;ratioP1;P1;durP2;ratioP2;P2;SDS_P1;SDS_P2;PMS_P1;PMS_P2;Temp;Humidity;BMP_temperature;BMP_pressure;BME280_temperature;BME280_humidity;BME280_pressure;Samples;Min_cycle;Max_cycle;Signal;HPM_P1;HPM_P2
2024/03/03 00:02:15;;;;;;;5.50;4.10;;;;;;;;;;4978994;28;20525;-81
2024/03/03 00:04:41;;;;;;;6.88;5.88;;;;;;;;;;4997226;28;20519;-80
2024/03/03 00:07:07;;;;;;;5.30;4.80;;;;;;;;;;4995595;28;20242;-81
2024/03/03 00:09:33;;;;;;;7.20;5.00;;;;;;;;;;4999120;28;20443;-80
2024/03/03 00:11:59;;;;;;;5.80;4.57;;;;;;;;;;4994720;28;20972;-81
2024/03/03 00:14:25;;;;;;;11.18;4.80;;;;;;;;;;4997101;28;20199;-81
2024/03/03 00:16:51;;;;;;;5.80;4.90;;;;;;;;;;4986495;28;20193;-81
2024/03/03 00:19:17;;;;;;;6.40;4.45;;;;;;;;;;4994969;28;20817;-81
2024/03/03 00:21:43;;;;;;;7.68;5.10;;;;;;;;;;4993870;28;20179;-81
2024/03/03 00:24:09;;;;;;;8.07;5.67;;;;;;;;;;4999053;28;20171;-80
2024/03/03 00:26:35;;;;;;;6.60;4.65;;;;;;;;;;4996767;28;20434;-81
2024/03/03 00:29:01;;;;;;;9.30;4.93;;;;;;;;;;4994870;28;20558;-82
2024/03/03 00:31:27;;;;;;;6.88;4.25;;;;;;;;;;4995615;28;20187;-80
2024/03/03 00:33:53;;;;;;;6.00;5.00;;;;;;;;;;4994343;28;20196;-81
2024/03/03 00:36:19;;;;;;;7.67;4.87;;;;;;;;;;4980480;28;20407;-81
2024/03/03 00:38:45;;;;;;;9.13;5.43;;;;;;;;;;4999708;28;20924;-81
2024/03/03 00:41:12;;;;;;;8.25;5.75;;;;;;;;;;4999773;28;20206;-82
2024/03/03 00:43:38;;;;;;;6.60;5.55;;;;;;;;;;5000005;28;20207;-81
2024/03/03 00:46:05;;;;;;;8.40;6.10;;;;;;;;;;4999877;28;20184;-81
2024/03/03 00:48:31;;;;;;;6.13;4.82;;;;;;;;;;4999389;28;20426;-82
2024/03/03 00:50:57;;;;;;;14.53;5.53;;;;;;;;;;4999770;28;20183;-81
2024/03/03 00:53:23;;;;;;;8.97;6.50;;;;;;;;;;4998646;28;20409;-81
2024/03/03 00:55:52;;;;;;;9.15;5.80;;;;;;;;;;4999381;28;20399;-80
2024/03/03 00:58:20;;;;;;;9.55;5.85;;;;;;;;;;4999570;28;20183;-80
2024/03/03 01:00:46;;;;;;;7.88;5.95;;;;;;;;;;4999493;28;20195;-80
2024/03/03 01:03:12;;;;;;;9.52;5.53;;;;;;;;;;4999306;28;20572;-80
2024/03/03 01:05:38;;;;;;;10.93;6.03;;;;;;;;;;4998973;28;20231;-81
2024/03/03 01:08:04;;;;;;;8.35;5.78;;;;;;;;;;4998702;28;20804;-81
2024/03/03 01:10:30;;;;;;;9.85;6.55;;;;;;;;;;4999060;28;20226;-80
2024/03/03 01:12:56;;;;;;;7.57;5.10;;;;;;;;;;4997906;28;20184;-80
2024/03/03 01:15:23;;;;;;;9.63;6.38;;;;;;;;;;5007408;28;20454;-81
2024/03/03 01:17:49;;;;;;;7.80;6.30;;;;;;;;;;4998703;28;20691;-81
2024/03/03 01:20:15;;;;;;;8.17;6.50;;;;;;;;;;4999288;28;20493;-81
2024/03/03 01:22:41;;;;;;;8.03;6.60;;;;;;;;;;4999006;28;20453;-80
2024/03/03 01:25:07;;;;;;;9.27;6.47;;;;;;;;;;4981870;28;20410;-81
2024/03/03 01:27:33;;;;;;;12.15;7.00;;;;;;;;;;4998794;28;20415;-80
2024/03/03 01:29:59;;;;;;;9.77;6.28;;;;;;;;;;4999231;28;20258;-81
2024/03/03 01:32:25;;;;;;;11.93;6.45;;;;;;;;;;4997372;28;20203;-81
2024/03/03 01:34:52;;;;;;;8.68;6.65;;;;;;;;;;4981502;28;20540;-81
2024/03/03 01:37:18;;;;;;;9.63;7.13;;;;;;;;;;4981008;28;20199;-81
2024/03/03 01:39:47;;;;;;;10.70;7.20;;;;;;;;;;4998276;28;20203;-81
2024/03/03 01:42:14;;;;;;;13.02;7.10;;;;;;;;;;4998920;28;20203;-81
2024/03/03 01:44:40;;;;;;;11.45;7.65;;;;;;;;;;4998841;28;20542;-80
2024/03/03 01:47:08;;;;;;;10.05;7.30;;;;;;;;;;4998117;28;20180;-81
2024/03/03 01:49:35;;;;;;;11.57;7.13;;;;;;;;;;4997733;28;20203;-80
2024/03/03 01:52:03;;;;;;;13.02;7.50;;;;;;;;;;4998305;28;20207;-81
2024/03/03 01:54:29;;;;;;;10.35;8.13;;;;;;;;;;4998041;28;20174;-80
2024/03/03 01:56:56;;;;;;;9.90;7.47;;;;;;;;;;4981125;28;20190;-81
2024/03/03 01:59:22;;;;;;;11.75;7.47;;;;;;;;;;4998438;28;20551;-81
2024/03/03 02:01:48;;;;;;;11.03;7.83;;;;;;;;;;4997760;28;20233;-81
2024/03/03 02:04:14;;;;;;;10.77;6.80;;;;;;;;;;4998208;28;20410;-81
2024/03/03 02:06:42;;;;;;;12.63;7.38;;;;;;;;;;4998314;28;20681;-81
2024/03/03 02:09:08;;;;;;;11.68;7.10;;;;;;;;;;4998474;28;20187;-81
2024/03/03 02:11:34;;;;;;;9.80;7.00;;;;;;;;;;4980410;28;20643;-80
2024/03/03 02:14:00;;;;;;;10.50;6.50;;;;;;;;;;4998480;28;20183;-80
2024/03/03 02:16:26;;;;;;;7.03;6.13;;;;;;;;;;4997947;28;20187;-81
2024/03/03 02:18:52;;;;;;;10.20;7.33;;;;;;;;;;4998161;28;20489;-81
2024/03/03 02:21:25;;;;;;;9.33;7.80;;;;;;;;;;4998620;28;20415;-81
2024/03/03 02:23:51;;;;;;;10.20;7.00;;;;;;;;;;4997561;28;20411;-80
2024/03/03 02:26:19;;;;;;;10.45;7.75;;;;;;;;;;5000219;28;20229;-81
2024/03/03 02:28:45;;;;;;;10.13;7.70;;;;;;;;;;5017338;28;20245;-80
2024/03/03 02:31:11;;;;;;;15.35;7.75;;;;;;;;;;5000036;28;20175;-81
2024/03/03 02:33:37;;;;;;;9.93;7.43;;;;;;;;;;5017466;28;20190;-80
2024/03/03 02:36:03;;;;;;;10.97;8.43;;;;;;;;;;5018430;28;20425;-81
2024/03/03 02:38:29;;;;;;;10.20;6.97;;;;;;;;;;5017495;28;20401;-81
2024/03/03 02:40:55;;;;;;;9.33;6.53;;;;;;;;;;5017070;28;20191;-81
2024/03/03 02:43:21;;;;;;;10.53;7.70;;;;;;;;;;5000415;28;20441;-81
2024/03/03 02:45:47;;;;;;;16.35;8.48;;;;;;;;;;5017048;28;20410;-80
2024/03/03 02:48:13;;;;;;;12.47;8.80;;;;;;;;;;4999724;28;20600;-81
2024/03/03 02:50:39;;;;;;;12.33;8.03;;;;;;;;;;5017514;28;20445;-80
2024/03/03 02:53:05;;;;;;;11.93;7.75;;;;;;;;;;5016968;28;20417;-80
2024/03/03 02:55:31;;;;;;;12.43;7.57;;;;;;;;;;5017112;28;20193;-80
2024/03/03 02:57:57;;;;;;;10.90;7.60;;;;;;;;;;4999074;28;20402;-81
2024/03/03 03:00:23;;;;;;;11.67;7.67;;;;;;;;;;5016642;28;20503;-80
2024/03/03 03:02:49;;;;;;;9.38;7.18;;;;;;;;;;4998897;28;20553;-80
2024/03/03 03:05:15;;;;;;;11.07;7.40;;;;;;;;;;5016858;28;20709;-80
2024/03/03 03:07:41;;;;;;;11.93;7.37;;;;;;;;;;4979517;28;20811;-80
2024/03/03 03:10:07;;;;;;;12.27;7.30;;;;;;;;;;4997231;28;20573;-81
2024/03/03 03:12:33;;;;;;;10.98;7.07;;;;;;;;;;4997043;28;20429;-81
2024/03/03 03:14:59;;;;;;;9.00;6.70;;;;;;;;;;4996948;28;20525;-81
2024/03/03 03:17:25;;;;;;;14.20;8.07;;;;;;;;;;4979917;28;20462;-81
2024/03/03 03:19:51;;;;;;;14.37;7.97;;;;;;;;;;4997084;28;20473;-80
2024/03/03 03:22:17;;;;;;;10.02;7.18;;;;;;;;;;4997408;28;20509;-81
2024/03/03 03:24:43;;;;;;;10.23;8.00;;;;;;;;;;4997144;28;20214;-81
2024/03/03 03:27:09;;;;;;;9.80;7.10;;;;;;;;;;4997481;28;20437;-81
2024/03/03 03:29:35;;;;;;;14.23;7.03;;;;;;;;;;4997158;28;20938;-80
2024/03/03 03:32:01;;;;;;;13.10;7.80;;;;;;;;;;4995662;28;20433;-80
2024/03/03 03:34:27;;;;;;;17.10;7.80;;;;;;;;;;4995731;28;20433;-81
2024/03/03 03:36:54;;;;;;;10.63;7.17;;;;;;;;;;4996809;28;20418;-81
2024/03/03 03:39:20;;;;;;;9.88;7.30;;;;;;;;;;4997243;28;20498;-80
2024/03/03 03:41:47;;;;;;;10.23;7.70;;;;;;;;;;4995691;28;20571;-81
2024/03/03 03:44:13;;;;;;;11.75;7.28;;;;;;;;;;4997038;28;20180;-81
2024/03/03 03:46:39;;;;;;;10.18;6.95;;;;;;;;;;4995563;28;20582;-80
2024/03/03 03:49:12;;;;;;;12.25;7.07;;;;;;;;;;4997049;28;20179;-81
2024/03/03 03:51:39;;;;;;;12.80;8.15;;;;;;;;;;4997104;28;20179;-80
2024/03/03 03:54:05;;;;;;;9.55;7.15;;;;;;;;;;4996781;28;20195;-80
2024/03/03 03:56:34;;;;;;;11.57;7.75;;;;;;;;;;4996830;28;20182;-81
2024/03/03 03:59:01;;;;;;;16.70;7.85;;;;;;;;;;4990820;28;20188;-80
2024/03/03 04:01:27;;;;;;;13.98;8.65;;;;;;;;;;4998971;28;20548;-80
2024/03/03 04:03:57;;;;;;;12.25;8.35;;;;;;;;;;4994994;28;20195;-80
2024/03/03 04:06:27;;;;;;;10.15;8.07;;;;;;;;;;4959733;28;20774;-80
2024/03/03 04:08:53;;;;;;;14.45;9.38;;;;;;;;;;4982236;28;20183;-80
2024/03/03 04:11:19;;;;;;;13.83;8.50;;;;;;;;;;4998076;28;20194;-81
2024/03/03 04:13:48;;;;;;;12.25;8.45;;;;;;;;;;5015742;28;20417;-81
2024/03/03 04:16:14;;;;;;;13.18;8.65;;;;;;;;;;5015193;28;20179;-81
2024/03/03 04:18:40;;;;;;;11.67;8.47;;;;;;;;;;5013763;28;20205;-81
2024/03/03 04:21:06;;;;;;;12.53;8.30;;;;;;;;;;4996400;28;21050;-80
2024/03/03 04:23:32;;;;;;;14.07;8.30;;;;;;;;;;4996734;28;20413;-81
2024/03/03 04:25:58;;;;;;;10.88;7.80;;;;;;;;;;4979045;28;20640;-81
2024/03/03 04:28:24;;;;;;;12.23;7.93;;;;;;;;;;4996539;28;20270;-81
2024/03/03 04:30:50;;;;;;;11.75;8.23;;;;;;;;;;4995980;28;20198;-81
2024/03/03 04:33:16;;;;;;;11.45;7.50;;;;;;;;;;4996486;28;20175;-80
2024/03/03 04:35:42;;;;;;;12.57;7.47;;;;;;;;;;4996393;28;20182;-80
2024/03/03 04:38:09;;;;;;;13.20;6.90;;;;;;;;;;4997391;28;20208;-80
2024/03/03 04:40:35;;;;;;;9.98;7.88;;;;;;;;;;4996156;28;20694;-80
2024/03/03 04:43:01;;;;;;;14.20;8.33;;;;;;;;;;4976384;28;20196;-81
2024/03/03 04:45:27;;;;;;;14.20;8.60;;;;;;;;;;4977204;28;20769;-81
2024/03/03 04:47:53;;;;;;;11.87;8.50;;;;;;;;;;4968497;28;20459;-80
2024/03/03 04:50:19;;;;;;;12.00;8.83;;;;;;;;;;4976497;28;20420;-81
2024/03/03 04:52:45;;;;;;;14.07;7.83;;;;;;;;;;4994508;28;20472;-80
2024/03/03 04:55:11;;;;;;;13.60;8.37;;;;;;;;;;4996355;28;20414;-80
2024/03/03 04:57:37;;;;;;;12.60;9.00;;;;;;;;;;4999481;28;20415;-81
2024/03/03 05:00:08;;;;;;;15.82;10.77;;;;;;;;;;5015032;28;20878;-81
2024/03/03 05:02:34;;;;;;;18.98;10.77;;;;;;;;;;5015342;28;20203;-80
2024/03/03 05:05:00;;;;;;;21.48;10.85;;;;;;;;;;4997135;28;20195;-81
2024/03/03 05:07:27;;;;;;;16.53;10.30;;;;;;;;;;4993687;28;20239;-81
2024/03/03 05:09:53;;;;;;;20.27;12.05;;;;;;;;;;4992064;28;20505;-81
2024/03/03 05:12:19;;;;;;;15.20;10.32;;;;;;;;;;5014169;28;20269;-81
2024/03/03 05:14:45;;;;;;;15.60;9.87;;;;;;;;;;5012506;28;20222;-80
2024/03/03 05:17:11;;;;;;;16.77;9.95;;;;;;;;;;5000981;28;20429;-80
2024/03/03 05:19:37;;;;;;;16.43;10.17;;;;;;;;;;4996033;28;20294;-80
2024/03/03 05:22:03;;;;;;;16.70;10.18;;;;;;;;;;4996222;28;20948;-81
2024/03/03 05:24:29;;;;;;;17.00;10.70;;;;;;;;;;4999507;28;20186;-81
2024/03/03 05:26:55;;;;;;;19.17;11.50;;;;;;;;;;5015232;28;20187;-81
2024/03/03 05:29:21;;;;;;;16.75;10.38;;;;;;;;;;5018837;28;20179;-80
2024/03/03 05:31:47;;;;;;;16.02;9.57;;;;;;;;;;4994106;28;20202;-80
2024/03/03 05:34:15;;;;;;;15.13;9.77;;;;;;;;;;5008656;28;20210;-81
2024/03/03 05:36:41;;;;;;;14.88;10.63;;;;;;;;;;4981854;28;20190;-81
2024/03/03 05:39:07;;;;;;;15.15;10.45;;;;;;;;;;5012696;28;20767;-81
2024/03/03 05:41:33;;;;;;;15.38;9.40;;;;;;;;;;4999004;28;20180;-81
2024/03/03 05:43:59;;;;;;;16.95;10.73;;;;;;;;;;4998423;28;20242;-81
2024/03/03 05:46:25;;;;;;;17.85;11.43;;;;;;;;;;5003284;28;20187;-81
2024/03/03 05:48:51;;;;;;;16.73;10.40;;;;;;;;;;5011181;28;20574;-80
2024/03/03 05:51:17;;;;;;;14.23;10.40;;;;;;;;;;4997682;28;20449;-80
2024/03/03 05:53:43;;;;;;;16.33;11.17;;;;;;;;;;5016633;28;20428;-81
2024/03/03 05:56:12;;;;;;;16.73;10.77;;;;;;;;;;4999536;28;20777;-81
2024/03/03 05:58:38;;;;;;;18.40;11.80;;;;;;;;;;4998363;28;20202;-81
2024/03/03 06:01:04;;;;;;;20.20;11.67;;;;;;;;;;4998225;28;20207;-81
2024/03/03 06:03:30;;;;;;;16.33;10.73;;;;;;;;;;5014567;28;20827;-81
2024/03/03 06:05:56;;;;;;;20.83;12.80;;;;;;;;;;5016874;28;20416;-80
2024/03/03 06:08:22;;;;;;;17.53;12.07;;;;;;;;;;5000618;28;20413;-81
2024/03/03 06:10:48;;;;;;;19.50;11.90;;;;;;;;;;4989180;28;20972;-80
2024/03/03 06:13:14;;;;;;;21.67;11.23;;;;;;;;;;4998282;28;20522;-81
2024/03/03 06:15:40;;;;;;;21.57;11.80;;;;;;;;;;4998758;28;20431;-81
2024/03/03 06:18:06;;;;;;;24.17;11.07;;;;;;;;;;5002076;28;20957;-80
2024/03/03 06:20:32;;;;;;;17.52;12.07;;;;;;;;;;5007560;28;20496;-81
2024/03/03 06:22:58;;;;;;;16.97;9.90;;;;;;;;;;5017207;28;20174;-80
2024/03/03 06:25:24;;;;;;;14.97;10.77;;;;;;;;;;5016320;28;20925;-81
2024/03/03 06:27:50;;;;;;;16.93;10.90;;;;;;;;;;5015714;28;20425;-80
2024/03/03 06:30:16;;;;;;;13.37;9.60;;;;;;;;;;5012726;28;20414;-81
2024/03/03 06:32:42;;;;;;;12.80;9.20;;;;;;;;;;4998241;28;20411;-81
2024/03/03 06:35:12;;;;;;;16.45;9.90;;;;;;;;;;4997345;28;20222;-80
2024/03/03 06:37:38;;;;;;;13.38;9.43;;;;;;;;;;4997822;28;20711;-81
2024/03/03 06:40:05;;;;;;;14.93;8.80;;;;;;;;;;4997621;28;20296;-80
2024/03/03 06:42:34;;;;;;;11.68;8.52;;;;;;;;;;4996575;28;20184;-81
2024/03/03 06:45:00;;;;;;;13.27;8.95;;;;;;;;;;5011201;28;20203;-81
2024/03/03 06:47:29;;;;;;;17.35;9.25;;;;;;;;;;4997501;28;20183;-81
2024/03/03 06:49:55;;;;;;;16.85;10.10;;;;;;;;;;4997741;28;20195;-81
2024/03/03 06:52:22;;;;;;;15.13;9.55;;;;;;;;;;4998368;28;20191;-81
2024/03/03 06:54:48;;;;;;;20.60;11.10;;;;;;;;;;5015939;28;20229;-78
2024/03/03 06:57:14;;;;;;;11.80;8.82;;;;;;;;;;5017275;28;20198;-81
2024/03/03 06:59:40;;;;;;;12.43;9.40;;;;;;;;;;5017432;28;20206;-81
2024/03/03 07:02:07;;;;;;;15.70;10.23;;;;;;;;;;5014712;28;20478;-81
2024/03/03 07:04:33;;;;;;;14.52;10.75;;;;;;;;;;5009882;28;20226;-81
2024/03/03 07:06:59;;;;;;;15.60;10.00;;;;;;;;;;4995313;28;20227;-81
2024/03/03 07:09:25;;;;;;;17.63;10.38;;;;;;;;;;4992630;28;20206;-81
2024/03/03 07:11:55;;;;;;;18.23;12.30;;;;;;;;;;5014984;28;20538;-81
2024/03/03 07:14:22;;;;;;;18.40;10.50;;;;;;;;;;5017640;28;20505;-81
2024/03/03 07:16:48;;;;;;;18.13;10.52;;;;;;;;;;5012192;28;20180;-81
2024/03/03 07:19:14;;;;;;;16.50;10.88;;;;;;;;;;5009727;28;20206;-81
2024/03/03 07:21:40;;;;;;;14.00;9.90;;;;;;;;;;5013415;28;20183;-81
2024/03/03 07:24:07;;;;;;;15.85;10.05;;;;;;;;;;5015351;28;20183;-81
2024/03/03 07:26:33;;;;;;;16.50;10.48;;;;;;;;;;5004763;28;20176;-81
2024/03/03 07:29:02;;;;;;;16.20;11.40;;;;;;;;;;4996451;28;20564;-82
2024/03/03 07:31:28;;;;;;;17.58;11.57;;;;;;;;;;4996404;28;20399;-82
2024/03/03 07:33:54;;;;;;;17.10;11.37;;;;;;;;;;4994630;28;20553;-81
2024/03/03 07:36:20;;;;;;;17.00;11.60;;;;;;;;;;5015971;28;20495;-82
2024/03/03 07:38:46;;;;;;;18.38;11.50;;;;;;;;;;5015641;28;20167;-82
2024/03/03 07:41:12;;;;;;;15.10;10.60;;;;;;;;;;5011281;28;20200;-81
2024/03/03 07:43:38;;;;;;;14.85;10.80;;;;;;;;;;4994618;28;20543;-81
2024/03/03 07:46:04;;;;;;;14.75;10.35;;;;;;;;;;4993641;28;20179;-81
2024/03/03 07:48:30;;;;;;;15.65;10.25;;;;;;;;;;5002547;28;20176;-81
2024/03/03 07:50:56;;;;;;;14.05;10.45;;;;;;;;;;4995467;28;20274;-81
2024/03/03 07:53:23;;;;;;;18.33;11.23;;;;;;;;;;4996346;28;20215;-80
2024/03/03 07:55:49;;;;;;;15.63;10.00;;;;;;;;;;4995030;28;20454;-81
2024/03/03 07:58:14;;;;;;;14.45;9.85;;;;;;;;;;4995718;28;20172;-81
2024/03/03 08:00:41;;;;;;;14.33;10.87;;;;;;;;;;5013190;28;20603;-82
2024/03/03 08:03:10;;;;;;;14.35;9.77;;;;;;;;;;4998773;28;20454;-81
2024/03/03 08:05:36;;;;;;;16.92;10.05;;;;;;;;;;4990151;28;20250;-81
2024/03/03 08:08:03;;;;;;;16.83;11.23;;;;;;;;;;5002555;28;20659;-82
2024/03/03 08:10:29;;;;;;;16.45;10.38;;;;;;;;;;4995586;28;20638;-81
2024/03/03 08:12:55;;;;;;;16.20;10.15;;;;;;;;;;4996028;28;20184;-81
2024/03/03 08:15:21;;;;;;;16.53;11.17;;;;;;;;;;5000746;28;20259;-82
2024/03/03 08:17:47;;;;;;;14.70;10.02;;;;;;;;;;4985333;28;20792;-82
2024/03/03 08:20:13;;;;;;;13.97;10.63;;;;;;;;;;5005010;28;20206;-80
2024/03/03 08:22:40;;;;;;;20.02;10.35;;;;;;;;;;4997162;28;20421;-81
2024/03/03 08:25:08;;;;;;;17.08;10.95;;;;;;;;;;4997794;28;20233;-81
2024/03/03 08:27:34;;;;;;;17.30;10.30;;;;;;;;;;5015612;28;20183;-81
2024/03/03 08:30:00;;;;;;;19.00;10.50;;;;;;;;;;5014091;28;20182;-81
2024/03/03 08:32:26;;;;;;;15.00;10.48;;;;;;;;;;5005035;28;20267;-82
2024/03/03 08:34:52;;;;;;;14.53;10.13;;;;;;;;;;5000129;28;20622;-82
2024/03/03 08:37:18;;;;;;;15.27;10.77;;;;;;;;;;5013846;28;20483;-82
2024/03/03 08:39:44;;;;;;;13.37;9.30;;;;;;;;;;5001115;28;20466;-82
2024/03/03 08:42:10;;;;;;;13.17;9.87;;;;;;;;;;5001659;28;20496;-81
2024/03/03 08:44:35;;;;;;;13.30;9.70;;;;;;;;;;5014088;28;20464;-82
2024/03/03 08:47:01;;;;;;;14.43;10.23;;;;;;;;;;4995194;28;20411;-81
2024/03/03 08:49:27;;;;;;;14.30;9.25;;;;;;;;;;4994344;28;20509;-82
2024/03/03 08:51:54;;;;;;;12.53;9.83;;;;;;;;;;5011312;28;20194;-80
2024/03/03 08:54:20;;;;;;;14.50;10.10;;;;;;;;;;4995659;28;20406;-89
2024/03/03 08:56:46;;;;;;;12.80;9.30;;;;;;;;;;4994649;28;20410;-87
2024/03/03 08:59:12;;;;;;;16.10;10.50;;;;;;;;;;5013747;28;20778;-88
2024/03/03 09:01:38;;;;;;;13.67;9.93;;;;;;;;;;5006787;28;20501;-88
2024/03/03 09:04:04;;;;;;;14.50;10.07;;;;;;;;;;4977269;28;20557;-87
2024/03/03 09:06:30;;;;;;;13.80;9.10;;;;;;;;;;4979238;28;20478;-88
2024/03/03 09:08:56;;;;;;;15.07;9.93;;;;;;;;;;4980101;28;20426;-87
2024/03/03 09:11:22;;;;;;;15.67;10.33;;;;;;;;;;4996680;28;20403;-87
2024/03/03 09:13:48;;;;;;;14.40;9.83;;;;;;;;;;4997392;28;20433;-87
2024/03/03 09:16:14;;;;;;;12.47;9.37;;;;;;;;;;4997167;28;20422;-87
2024/03/03 09:18:40;;;;;;;13.77;9.63;;;;;;;;;;4996535;28;20854;-88
2024/03/03 09:21:09;;;;;;;14.07;10.00;;;;;;;;;;5012249;28;20796;-88
2024/03/03 09:23:35;;;;;;;13.50;9.40;;;;;;;;;;4980603;28;20410;-88
2024/03/03 09:26:01;;;;;;;14.30;10.87;;;;;;;;;;5010789;28;20506;-86
2024/03/03 09:28:28;;;;;;;18.30;10.50;;;;;;;;;;5009903;28;20756;-87
2024/03/03 09:30:54;;;;;;;16.97;10.73;;;;;;;;;;4997830;28;20418;-86
2024/03/03 09:33:20;;;;;;;20.07;12.70;;;;;;;;;;4998891;28;20437;-85
2024/03/03 09:35:46;;;;;;;13.67;10.93;;;;;;;;;;4998095;28;20406;-85
2024/03/03 09:38:12;;;;;;;16.70;11.57;;;;;;;;;;4983712;28;20892;-85
2024/03/03 09:40:38;;;;;;;16.70;10.10;;;;;;;;;;5016632;28;20842;-85
2024/03/03 09:43:08;;;;;;;15.73;10.50;;;;;;;;;;4997791;28;20429;-85
2024/03/03 09:45:34;;;;;;;13.70;10.17;;;;;;;;;;5010452;28;20423;-86
2024/03/03 09:48:01;;;;;;;13.57;9.80;;;;;;;;;;4986483;28;20406;-85
2024/03/03 09:50:28;;;;;;;15.03;10.40;;;;;;;;;;5015837;28;20428;-86
2024/03/03 09:52:56;;;;;;;10.80;9.13;;;;;;;;;;4967191;28;21002;-85
2024/03/03 09:55:23;;;;;;;14.70;10.20;;;;;;;;;;4976597;28;20427;-86
2024/03/03 09:57:49;;;;;;;12.37;9.67;;;;;;;;;;4996657;28;20442;-85
2024/03/03 10:00:15;;;;;;;12.70;9.70;;;;;;;;;;4997103;28;20493;-85
2024/03/03 10:02:42;;;;;;;14.10;10.13;;;;;;;;;;5011795;28;20968;-86
2024/03/03 10:05:09;;;;;;;14.30;9.03;;;;;;;;;;4995571;28;20382;-84
2024/03/03 10:07:44;;;;;;;11.87;8.43;;;;;;;;;;5016701;28;20468;-85
2024/03/03 10:10:10;;;;;;;11.40;8.93;;;;;;;;;;5014846;28;20454;-85
2024/03/03 10:12:37;;;;;;;11.93;8.00;;;;;;;;;;5011172;28;20513;-86
2024/03/03 10:15:04;;;;;;;10.60;8.30;;;;;;;;;;5002248;28;20425;-85
2024/03/03 10:17:31;;;;;;;11.97;9.60;;;;;;;;;;5016982;28;20779;-85
2024/03/03 10:20:05;;;;;;;13.30;8.63;;;;;;;;;;5015136;28;20453;-85
2024/03/03 10:22:31;;;;;;;10.67;7.63;;;;;;;;;;5013899;28;20409;-86
2024/03/03 10:25:10;;;;;;;11.10;9.03;;;;;;;;;;5008409;28;20421;-84
2024/03/03 10:27:36;;;;;;;12.13;8.80;;;;;;;;;;5015295;28;20496;-84
2024/03/03 10:30:03;;;;;;;10.10;7.60;;;;;;;;;;4998872;28;20410;-82
2024/03/03 10:32:29;;;;;;;12.90;8.73;;;;;;;;;;5005616;28;20412;-84
2024/03/03 10:34:58;;;;;;;12.93;8.97;;;;;;;;;;4981346;28;20382;-84
2024/03/03 10:37:25;;;;;;;10.60;7.80;;;;;;;;;;4997978;28;20503;-84
2024/03/03 10:39:51;;;;;;;11.10;7.70;;;;;;;;;;4998158;28;20458;-84
2024/03/03 10:42:17;;;;;;;12.13;8.43;;;;;;;;;;5012553;28;20422;-84
2024/03/03 10:44:43;;;;;;;11.70;8.27;;;;;;;;;;5013344;28;20400;-84
2024/03/03 10:47:10;;;;;;;9.90;7.10;;;;;;;;;;5015278;28;20989;-86
2024/03/03 10:49:36;;;;;;;11.30;8.00;;;;;;;;;;5013646;28;20444;-86
2024/03/03 10:52:03;;;;;;;22.47;8.20;;;;;;;;;;5013993;28;20798;-84
2024/03/03 10:54:30;;;;;;;10.97;8.30;;;;;;;;;;5013693;28;20429;-86
2024/03/03 10:56:56;;;;;;;10.57;7.97;;;;;;;;;;5014244;28;20395;-86
2024/03/03 10:59:22;;;;;;;9.83;8.17;;;;;;;;;;5012185;28;20503;-85
2024/03/03 11:01:48;;;;;;;11.27;7.77;;;;;;;;;;4988908;28;20404;-86
2024/03/03 11:04:15;;;;;;;8.50;7.23;;;;;;;;;;4995428;28;20415;-84
2024/03/03 11:06:45;;;;;;;13.03;8.47;;;;;;;;;;4989585;28;20743;-86
2024/03/03 11:09:12;;;;;;;8.87;7.97;;;;;;;;;;4988938;28;20431;-87
2024/03/03 11:11:45;;;;;;;11.20;8.07;;;;;;;;;;4992524;28;20418;-86
2024/03/03 11:14:11;;;;;;;12.90;8.87;;;;;;;;;;4986209;28;20390;-86
2024/03/03 11:16:39;;;;;;;10.90;7.47;;;;;;;;;;4980703;28;20415;-86
2024/03/03 11:19:10;;;;;;;11.90;8.77;;;;;;;;;;4989731;28;20911;-85
2024/03/03 11:21:37;;;;;;;12.27;8.63;;;;;;;;;;4975176;28;20453;-85
2024/03/03 11:24:07;;;;;;;9.63;7.77;;;;;;;;;;4983111;28;20382;-86
2024/03/03 11:26:46;;;;;;;9.30;7.77;;;;;;;;;;4983433;28;20395;-86
2024/03/03 11:29:13;;;;;;;12.90;8.63;;;;;;;;;;4991012;28;20764;-86
2024/03/03 11:31:40;;;;;;;12.00;9.10;;;;;;;;;;4985441;28;20415;-86
2024/03/03 11:34:07;;;;;;;12.30;8.73;;;;;;;;;;4975950;28;20888;-86
2024/03/03 11:36:34;;;;;;;11.97;8.90;;;;;;;;;;4976713;28;20392;-86
2024/03/03 11:39:09;;;;;;;11.20;9.03;;;;;;;;;;4975208;28;20927;-86
2024/03/03 11:41:38;;;;;;;10.90;8.63;;;;;;;;;;4976615;28;20870;-86
2024/03/03 11:44:04;;;;;;;11.03;9.47;;;;;;;;;;4987667;28;20407;-86
2024/03/03 11:46:48;;;;;;;10.80;8.90;;;;;;;;;;4984810;28;20928;-86
2024/03/03 11:49:15;;;;;;;10.40;8.90;;;;;;;;;;4988928;28;20430;-86
2024/03/03 11:51:41;;;;;;;11.17;8.27;;;;;;;;;;4975120;28;20402;-86
2024/03/03 11:54:08;;;;;;;21.70;9.30;;;;;;;;;;4980295;28;20414;-86
2024/03/03 11:56:45;;;;;;;10.50;8.03;;;;;;;;;;4993191;28;20406;-85
2024/03/03 11:59:11;;;;;;;10.60;9.50;;;;;;;;;;4987981;28;20740;-86
2024/03/03 12:01:39;;;;;;;17.33;8.80;;;;;;;;;;4983870;28;20389;-87
2024/03/03 12:04:05;;;;;;;11.37;8.03;;;;;;;;;;4986914;28;20387;-85
2024/03/03 12:06:31;;;;;;;14.93;9.27;;;;;;;;;;4979176;28;20528;-86
2024/03/03 12:09:00;;;;;;;12.67;8.43;;;;;;;;;;4978080;28;20448;-86
2024/03/03 12:11:27;;;;;;;10.40;8.73;;;;;;;;;;4994210;28;20876;-87
2024/03/03 12:13:58;;;;;;;14.07;8.30;;;;;;;;;;4994101;28;20445;-86
2024/03/03 12:16:24;;;;;;;16.03;9.23;;;;;;;;;;5006116;28;20735;-87
2024/03/03 12:18:50;;;;;;;9.50;8.30;;;;;;;;;;5000351;28;20388;-86
2024/03/03 12:21:17;;;;;;;12.20;9.40;;;;;;;;;;4991953;28;20902;-86
2024/03/03 12:23:43;;;;;;;8.17;7.37;;;;;;;;;;5002058;28;20402;-86
2024/03/03 12:26:10;;;;;;;9.60;8.60;;;;;;;;;;5014132;28;20904;-85
2024/03/03 12:28:38;;;;;;;11.13;8.80;;;;;;;;;;5003299;28;20804;-86
2024/03/03 12:31:04;;;;;;;9.67;8.67;;;;;;;;;;4995662;28;20414;-85
2024/03/03 12:33:30;;;;;;;10.40;7.90;;;;;;;;;;4996845;28;20501;-86
2024/03/03 12:35:56;;;;;;;11.57;9.80;;;;;;;;;;4998909;28;20419;-86
2024/03/03 12:38:22;;;;;;;10.87;8.60;;;;;;;;;;5004506;28;20411;-86
2024/03/03 12:40:49;;;;;;;11.83;8.77;;;;;;;;;;4998958;28;20440;-86
2024/03/03 12:43:15;;;;;;;10.10;8.77;;;;;;;;;;5009344;28;20429;-86
2024/03/03 12:45:47;;;;;;;12.00;8.63;;;;;;;;;;5005183;28;20460;-86
2024/03/03 12:48:13;;;;;;;9.87;8.30;;;;;;;;;;4997784;28;20426;-85
2024/03/03 12:50:40;;;;;;;12.13;9.07;;;;;;;;;;5007656;28;20414;-86
2024/03/03 12:53:06;;;;;;;14.07;10.07;;;;;;;;;;5010052;28;20417;-86
2024/03/03 12:55:34;;;;;;;12.97;9.60;;;;;;;;;;4987021;28;20418;-85
2024/03/03 12:58:02;;;;;;;17.00;14.80;;;;;;;;;;4998181;28;20452;-86
2024/03/03 13:00:28;;;;;;;11.73;9.17;;;;;;;;;;4996678;28;20432;-86
2024/03/03 13:02:54;;;;;;;11.10;8.70;;;;;;;;;;4999969;28;20933;-86
2024/03/03 13:05:22;;;;;;;10.80;8.00;;;;;;;;;;5012531;28;20490;-86
2024/03/03 13:07:49;;;;;;;11.33;8.40;;;;;;;;;;4997523;28;20493;-86
2024/03/03 13:10:19;;;;;;;10.57;8.67;;;;;;;;;;4997522;28;20404;-85
2024/03/03 13:12:45;;;;;;;12.10;9.20;;;;;;;;;;5015353;28;20560;-86
2024/03/03 13:15:11;;;;;;;10.13;8.50;;;;;;;;;;4998633;28;20388;-85
2024/03/03 13:17:37;;;;;;;11.13;8.57;;;;;;;;;;4994175;28;20420;-86
2024/03/03 13:20:03;;;;;;;11.60;9.10;;;;;;;;;;4994309;28;20462;-85
2024/03/03 13:22:29;;;;;;;14.93;9.10;;;;;;;;;;5009836;28;20423;-86
2024/03/03 13:24:58;;;;;;;12.10;8.33;;;;;;;;;;5012610;28;20415;-86
2024/03/03 13:27:25;;;;;;;11.40;8.50;;;;;;;;;;4996490;28;20789;-86
2024/03/03 13:29:52;;;;;;;11.23;8.50;;;;;;;;;;4997455;28;20969;-86
2024/03/03 13:32:18;;;;;;;13.73;9.97;;;;;;;;;;5012151;28;20816;-84
2024/03/03 13:34:44;;;;;;;8.70;7.80;;;;;;;;;;4996365;28;20442;-85
2024/03/03 13:37:10;;;;;;;8.87;7.90;;;;;;;;;;5003557;28;20749;-87
2024/03/03 13:39:36;;;;;;;13.80;9.30;;;;;;;;;;4990199;28;20469;-86
2024/03/03 13:42:02;;;;;;;12.00;9.33;;;;;;;;;;5001060;28;20527;-86
2024/03/03 13:44:29;;;;;;;8.90;7.67;;;;;;;;;;4984755;28;20765;-86
2024/03/03 13:46:54;;;;;;;12.60;8.60;;;;;;;;;;4996174;28;20393;-86
2024/03/03 13:49:20;;;;;;;9.47;7.80;;;;;;;;;;4986622;28;20421;-86
2024/03/03 13:51:46;;;;;;;12.50;8.90;;;;;;;;;;4997914;28;20419;-86
2024/03/03 13:54:13;;;;;;;10.23;9.13;;;;;;;;;;4996009;28;20396;-83
2024/03/03 13:56:42;;;;;;;9.33;8.23;;;;;;;;;;4993342;28;20470;-86
2024/03/03 13:59:09;;;;;;;10.70;8.90;;;;;;;;;;4980476;28;20398;-86
2024/03/03 14:01:35;;;;;;;12.23;8.67;;;;;;;;;;5008891;28;20398;-86
2024/03/03 14:04:07;;;;;;;9.77;8.50;;;;;;;;;;4996528;28;20373;-86
2024/03/03 14:06:34;;;;;;;11.53;8.20;;;;;;;;;;4996396;28;21064;-86
2024/03/03 14:09:00;;;;;;;12.47;8.10;;;;;;;;;;4996440;28;20846;-86
2024/03/03 14:11:26;;;;;;;11.40;8.67;;;;;;;;;;5012961;28;20414;-86
2024/03/03 14:13:52;;;;;;;11.70;9.20;;;;;;;;;;4985220;28;20477;-86
2024/03/03 14:16:20;;;;;;;9.80;7.80;;;;;;;;;;5000237;28;20755;-85
2024/03/03 14:18:46;;;;;;;12.43;7.80;;;;;;;;;;5001747;28;20386;-86
2024/03/03 14:21:11;;;;;;;10.83;7.83;;;;;;;;;;5000633;28;20510;-86
2024/03/03 14:23:37;;;;;;;10.23;7.97;;;;;;;;;;5012109;28;20396;-86
2024/03/03 14:26:03;;;;;;;9.97;6.80;;;;;;;;;;5005021;28;20401;-85